createdAt,value
2018-09-28T00:03:07.897Z,12.50
2018-09-28T00:07:58.977Z,12.50
2018-09-28T00:12:50.589Z,12.40
2018-09-28T00:17:41.550Z,12.40
2018-09-28T00:22:32.500Z,12.40
2018-09-28T00:27:23.441Z,12.30
2018-09-28T00:32:14.455Z,12.30
2018-09-28T00:37:05.418Z,12.30
2018-09-28T00:41:56.503Z,12.20
2018-09-28T00:46:47.400Z,12.20
2018-09-28T00:51:38.425Z,12.20
2018-09-28T00:56:29.419Z,12.10
2018-09-28T01:01:20.400Z,12.10
2018-09-28T01:06:11.361Z,12.10
2018-09-28T01:11:02.292Z,12.00
2018-09-28T01:15:54.045Z,11.90
2018-09-28T01:20:44.963Z,11.90
2018-09-28T01:25:35.994Z,11.80
2018-09-28T01:30:26.966Z,11.80
2018-09-28T01:35:18.632Z,11.70
2018-09-28T01:40:09.567Z,11.60
2018-09-28T01:45:00.492Z,11.60
2018-09-28T01:49:52.217Z,11.50
2018-09-28T01:54:43.157Z,11.50
2018-09-28T01:59:34.829Z,11.50
2018-09-28T02:04:26.474Z,11.50
2018-09-28T02:09:17.558Z,11.40
2018-09-28T02:14:08.447Z,11.40
2018-09-28T02:18:59.380Z,11.50
2018-09-28T02:23:50.366Z,11.40
2018-09-28T02:28:41.372Z,11.50
2018-09-28T02:33:33.037Z,11.50
2018-09-28T02:38:23.957Z,11.50
2018-09-28T02:43:14.832Z,11.50
2018-09-28T02:48:05.831Z,11.50
2018-09-28T02:52:56.720Z,11.50
2018-09-28T02:57:48.451Z,11.50
2018-09-28T03:02:39.434Z,11.50
2018-09-28T03:07:30.434Z,11.50
2018-09-28T03:12:22.891Z,11.50
2018-09-28T03:17:13.828Z,11.50
2018-09-28T03:22:04.803Z,11.40
2018-09-28T03:26:55.793Z,11.50
2018-09-28T03:31:47.488Z,11.50
2018-09-28T03:36:38.384Z,11.40
2018-09-28T03:41:29.343Z,11.40
2018-09-28T03:46:20.981Z,11.40
2018-09-28T03:51:12.971Z,11.40
2018-09-28T03:56:03.868Z,11.40
2018-09-28T04:00:54.857Z,11.40
2018-09-28T04:05:46.506Z,11.30
2018-09-28T04:10:37.408Z,11.30
2018-09-28T04:15:29.056Z,11.20
2018-09-28T04:20:19.980Z,11.20
2018-09-28T04:25:11.002Z,11.20
2018-09-28T04:30:01.921Z,11.20
2018-09-28T04:34:52.875Z,11.20
2018-09-28T04:39:43.737Z,11.20
2018-09-28T04:44:35.362Z,11.10
2018-09-28T04:49:26.276Z,11.10
2018-09-28T04:54:17.904Z,11.10
2018-09-28T04:59:08.798Z,11.00
2018-09-28T05:03:59.812Z,11.10
2018-09-28T05:08:51.458Z,11.10
2018-09-28T05:13:42.381Z,11.00
2018-09-28T05:18:33.285Z,11.10
2018-09-28T05:23:24.175Z,11.10
2018-09-28T05:28:15.103Z,11.10
2018-09-28T05:33:06.057Z,11.10
2018-09-28T05:37:56.949Z,11.20
2018-09-28T05:42:47.850Z,11.20
2018-09-28T05:47:38.869Z,11.30
2018-09-28T05:52:29.760Z,11.30
2018-09-28T05:57:20.704Z,11.40
2018-09-28T06:02:28.636Z,11.40
2018-09-28T06:07:20.263Z,11.50
2018-09-28T06:12:11.217Z,11.50
2018-09-28T06:17:02.112Z,11.60
2018-09-28T06:21:53.048Z,11.60
2018-09-28T06:26:43.948Z,11.70
2018-09-28T06:31:34.912Z,11.70
2018-09-28T06:36:25.796Z,11.80
2018-09-28T06:41:16.739Z,11.90
2018-09-28T06:46:07.687Z,12.00
2018-09-28T06:50:58.659Z,12.10
2018-09-28T06:55:49.693Z,12.20
2018-09-28T07:00:40.665Z,12.20
2018-09-28T07:05:32.329Z,12.50
2018-09-28T07:10:23.221Z,12.40
2018-09-28T07:15:14.208Z,12.60
2018-09-28T07:20:05.154Z,12.60
2018-09-28T07:24:56.116Z,12.70
2018-09-28T07:29:47.171Z,12.80
2018-09-28T07:34:38.023Z,12.90
2018-09-28T07:39:28.955Z,12.90
2018-09-28T07:44:19.913Z,13.00
2018-09-28T07:49:11.554Z,13.10
2018-09-28T07:54:02.473Z,13.10
2018-09-28T07:58:53.455Z,13.20
2018-09-28T08:03:44.441Z,13.30
2018-09-28T08:08:35.347Z,13.30
2018-09-28T08:13:26.263Z,13.40
2018-09-28T08:18:17.205Z,13.50
2018-09-28T08:23:08.836Z,13.60
2018-09-28T08:27:59.771Z,13.60
2018-09-28T08:32:51.461Z,13.80
2018-09-28T08:37:42.391Z,13.70
2018-09-28T08:42:33.284Z,13.80
2018-09-28T08:47:24.911Z,14.00
2018-09-28T08:52:15.826Z,14.00
2018-09-28T08:57:06.726Z,14.20
2018-09-28T09:01:57.673Z,14.20
2018-09-28T09:06:48.530Z,14.30
2018-09-28T09:11:40.166Z,14.50
2018-09-28T09:16:31.080Z,14.40
2018-09-28T09:21:22.734Z,14.60
2018-09-28T09:26:13.649Z,14.60
2018-09-28T09:31:05.307Z,14.80
2018-09-28T09:35:56.203Z,14.70
2018-09-28T09:40:47.847Z,14.90
2018-09-28T09:45:38.791Z,14.90
2018-09-28T09:50:29.705Z,15.00
2018-09-28T09:55:20.607Z,15.10
2018-09-28T10:00:11.520Z,15.10
2018-09-28T10:05:02.448Z,15.10
2018-09-28T10:09:54.085Z,15.20
2018-09-28T10:14:44.976Z,15.20
2018-09-28T10:19:36.708Z,15.30
2018-09-28T10:24:28.298Z,15.40
2018-09-28T10:29:19.195Z,15.40
2018-09-28T10:34:10.144Z,15.50
2018-09-28T10:39:01.657Z,15.60
2018-09-28T10:43:52.629Z,15.70
2018-09-28T10:48:43.524Z,15.80
2018-09-28T10:53:34.545Z,16.00
2018-09-28T10:58:25.565Z,16.00
2018-09-28T11:03:17.261Z,16.20
2018-09-28T11:08:08.865Z,16.40
2018-09-28T11:12:59.758Z,16.40
2018-09-28T11:17:50.652Z,16.70
2018-09-28T11:22:42.305Z,17.40
2018-09-28T11:27:33.266Z,17.30
2018-09-28T11:32:24.171Z,17.50
2018-09-28T11:37:15.821Z,18.50
2018-09-28T11:42:06.708Z,18.60
2018-09-28T11:46:58.337Z,19.20
2018-09-28T11:51:49.329Z,19.20
2018-09-28T11:56:40.894Z,20.00
2018-09-28T12:01:31.830Z,20.00
2018-09-28T12:06:29.743Z,20.30
2018-09-28T12:11:21.959Z,20.50
2018-09-28T12:16:13.898Z,20.40
2018-09-28T12:21:04.821Z,20.40
2018-09-28T12:25:55.804Z,20.40
2018-09-28T12:30:46.717Z,20.30
2018-09-28T12:35:37.690Z,20.20
2018-09-28T12:40:29.249Z,20.00
2018-09-28T12:45:20.199Z,20.00
2018-09-28T12:50:11.798Z,19.80
2018-09-28T12:55:02.726Z,19.80
2018-09-28T12:59:53.637Z,19.70
2018-09-28T13:04:44.542Z,19.60
2018-09-28T13:09:36.209Z,19.30
2018-09-28T13:14:28.736Z,19.10
2018-09-28T13:19:20.278Z,19.10
2018-09-28T13:24:11.253Z,19.10
2018-09-28T13:29:02.177Z,19.10
2018-09-28T13:33:53.040Z,19.00
2018-09-28T13:38:43.945Z,19.00
2018-09-28T13:43:34.830Z,18.90
2018-09-28T13:48:25.876Z,18.90
2018-09-28T13:53:16.727Z,18.80
2018-09-28T13:58:07.708Z,18.60
2018-09-28T14:02:58.625Z,18.50
2018-09-28T14:07:50.257Z,18.30
2018-09-28T14:12:41.336Z,18.30
2018-09-28T14:17:32.323Z,18.20
2018-09-28T14:22:23.285Z,18.10
2018-09-28T14:27:14.176Z,18.00
2018-09-28T14:32:05.845Z,17.70
2018-09-28T14:36:56.753Z,17.70
2018-09-28T14:41:47.738Z,17.50
2018-09-28T14:46:38.651Z,17.40
2018-09-28T14:51:29.561Z,17.20
2018-09-28T14:56:20.540Z,17.10
2018-09-28T15:01:11.645Z,17.00
2018-09-28T15:06:03.292Z,16.80
2018-09-28T15:10:54.205Z,16.70
2018-09-28T15:15:45.167Z,16.70
2018-09-28T15:20:36.828Z,16.60
2018-09-28T15:25:27.739Z,16.60
2018-09-28T15:30:18.726Z,16.60
2018-09-28T15:35:09.694Z,16.50
2018-09-28T15:40:00.683Z,16.50
2018-09-28T15:44:51.585Z,16.40
2018-09-28T15:49:42.504Z,16.20
2018-09-28T15:54:34.195Z,16.00
2018-09-28T15:59:25.855Z,15.90
2018-09-28T16:04:16.776Z,15.90
2018-09-28T16:09:07.699Z,15.80
2018-09-28T16:13:58.683Z,15.70
2018-09-28T16:18:50.394Z,15.50
2018-09-28T16:23:41.232Z,15.40
2018-09-28T16:28:32.899Z,15.20
2018-09-28T16:33:23.847Z,15.20
2018-09-28T16:38:14.786Z,15.10
2018-09-28T16:43:05.749Z,15.00
2018-09-28T16:47:56.635Z,14.80
2018-09-28T16:52:47.573Z,14.70
2018-09-28T16:57:39.249Z,14.40
2018-09-28T17:02:30.124Z,14.40
2018-09-28T17:07:21.051Z,14.20
2018-09-28T17:12:11.990Z,14.10
2018-09-28T17:17:03.617Z,13.80
2018-09-28T17:21:54.565Z,13.80
2018-09-28T17:26:45.444Z,13.70
2018-09-28T17:31:36.354Z,13.60
2018-09-28T17:36:27.300Z,13.50
2018-09-28T17:41:18.242Z,13.30
2018-09-28T17:46:09.238Z,13.20
2018-09-28T17:51:00.179Z,12.90
2018-09-28T17:55:51.072Z,12.90
2018-09-28T18:00:42.045Z,12.70
2018-09-28T18:05:33.023Z,12.60
2018-09-28T18:10:23.892Z,12.40
2018-09-28T18:15:15.619Z,12.10
2018-09-28T18:20:06.538Z,12.10
2018-09-28T18:24:57.447Z,12.00
2018-09-28T18:29:49.076Z,11.70
2018-09-28T18:34:39.996Z,11.60
2018-09-28T18:39:31.692Z,11.40
2018-09-28T18:44:22.829Z,11.40
2018-09-28T18:49:13.786Z,11.20
2018-09-28T18:54:05.417Z,11.10
2018-09-28T18:58:56.368Z,11.00
2018-09-28T19:03:48.075Z,10.70
2018-09-28T19:08:39.002Z,10.70
2018-09-28T19:13:29.993Z,10.60
2018-09-28T19:18:21.620Z,10.30
2018-09-28T19:23:12.557Z,10.30
2018-09-28T19:28:03.537Z,10.20
2018-09-28T19:32:54.473Z,10.10
2018-09-28T19:37:46.112Z,9.90
2018-09-28T19:42:37.024Z,9.90
2018-09-28T19:47:28.723Z,9.70
2018-09-28T19:52:20.365Z,9.60
2018-09-28T19:57:11.333Z,9.60
2018-09-28T20:02:02.208Z,9.50
2018-09-28T20:06:53.952Z,9.30
2018-09-28T20:11:44.924Z,9.30
2018-09-28T20:16:35.817Z,9.20
2018-09-28T20:21:26.728Z,9.10
2018-09-28T20:26:18.447Z,9.00
2018-09-28T20:31:10.432Z,8.90
2018-09-28T20:36:01.353Z,8.90
2018-09-28T20:40:52.385Z,8.80
2018-09-28T20:45:43.280Z,8.70
2018-09-28T20:50:34.287Z,8.70
2018-09-28T20:55:26.010Z,8.50
2018-09-28T21:00:16.881Z,8.50
2018-09-28T21:05:07.821Z,8.50
2018-09-28T21:09:59.538Z,8.40
2018-09-28T21:14:50.516Z,8.30
2018-09-28T21:19:41.413Z,8.30
2018-09-28T21:24:32.382Z,8.30
2018-09-28T21:29:23.231Z,8.20
2018-09-28T21:34:14.174Z,8.10
2018-09-28T21:39:05.103Z,8.10
2018-09-28T21:43:56.748Z,8.00
2018-09-28T21:48:47.706Z,8.00
2018-09-28T21:53:38.687Z,8.00
2018-09-28T21:58:29.576Z,7.90
2018-09-28T22:03:20.475Z,7.90
2018-09-28T22:08:12.179Z,7.80
2018-09-28T22:13:03.196Z,7.80
2018-09-28T22:17:54.145Z,7.80
2018-09-28T22:22:45.099Z,7.70
2018-09-28T22:27:36.010Z,7.60
2018-09-28T22:32:26.947Z,7.70
2018-09-28T22:37:17.897Z,7.60
2018-09-28T22:42:08.799Z,7.60
2018-09-28T22:46:59.717Z,7.50
2018-09-28T22:51:50.604Z,7.50
2018-09-28T22:56:41.541Z,7.40
2018-09-28T23:01:33.163Z,7.30
2018-09-28T23:06:24.153Z,7.30
2018-09-28T23:11:15.116Z,7.30
2018-09-28T23:16:06.104Z,7.20
2018-09-28T23:20:57.093Z,7.20
2018-09-28T23:25:48.936Z,7.10
2018-09-28T23:30:39.927Z,7.10
2018-09-28T23:35:30.811Z,7.10
2018-09-28T23:40:22.617Z,7.00
2018-09-28T23:45:13.509Z,7.00
2018-09-28T23:50:04.544Z,6.90
2018-09-28T23:54:55.448Z,6.90
2018-09-28T23:59:46.372Z,6.90
